Time;durP1;ratioP1;P1;durP2;ratioP2;P2;SDS_P1;SDS_P2;PMS_P1;PMS_P2;Temp;Humidity;BMP_temperature;BMP_pressure;BME280_temperature;BME280_humidity;BME280_pressure;Samples;Min_cycle;Max_cycle;Signal;HPM_P1;HPM_P2
2021/12/01 00:02:10;;;;;;;1.50;1.50;;;7.80;88.20;;;;;;5097070;28;20444;-42
2021/12/01 00:04:37;;;;;;;2.47;1.47;;;7.80;88.50;;;;;;5078513;28;20572;-42
2021/12/01 00:07:06;;;;;;;1.50;1.40;;;7.80;88.50;;;;;;5094845;28;20512;-42
2021/12/01 00:09:33;;;;;;;1.37;1.37;;;7.80;88.80;;;;;;5093238;28;20456;-41
2021/12/01 00:12:00;;;;;;;1.77;1.10;;;7.70;88.70;;;;;;5100863;27;20449;-41
2021/12/01 00:14:27;;;;;;;1.50;1.40;;;7.70;88.80;;;;;;5100292;28;20463;-41
2021/12/01 00:16:54;;;;;;;1.30;1.20;;;7.70;88.80;;;;;;5096351;28;20455;-41
2021/12/01 00:19:20;;;;;;;1.33;1.23;;;7.70;88.80;;;;;;5078462;28;20459;-41
2021/12/01 00:21:47;;;;;;;1.40;1.30;;;7.70;88.70;;;;;;5097399;28;20449;-41
2021/12/01 00:24:14;;;;;;;1.40;1.30;;;7.70;88.80;;;;;;5067874;28;20998;-41
2021/12/01 00:26:41;;;;;;;1.10;1.10;;;7.70;88.20;;;;;;5095698;28;20940;-41
2021/12/01 00:29:07;;;;;;;1.20;1.20;;;7.70;88.50;;;;;;5097469;28;20814;-41
2021/12/01 00:31:34;;;;;;;1.40;1.30;;;7.70;88.40;;;;;;5095230;28;21002;-41
2021/12/01 00:34:02;;;;;;;1.17;1.17;;;7.70;88.40;;;;;;5095448;28;20452;-41
2021/12/01 00:36:29;;;;;;;1.57;1.17;;;7.70;88.60;;;;;;5097820;28;20968;-41
2021/12/01 00:38:56;;;;;;;1.07;1.07;;;7.70;88.30;;;;;;5093088;28;20460;-41
2021/12/01 00:41:23;;;;;;;1.33;1.23;;;7.60;88.40;;;;;;5082414;28;20460;-41
2021/12/01 00:43:50;;;;;;;1.30;1.07;;;7.70;88.30;;;;;;5097452;28;20531;-41
2021/12/01 00:46:35;;;;;;;1.50;1.40;;;7.70;88.20;;;;;;5087085;28;20445;-41
2021/12/01 00:49:02;;;;;;;1.47;1.37;;;7.70;88.40;;;;;;5092944;28;20502;-41
2021/12/01 00:51:29;;;;;;;1.80;1.20;;;7.70;88.60;;;;;;5099146;28;20451;-41
2021/12/01 00:53:56;;;;;;;1.10;1.10;;;7.60;88.60;;;;;;5100769;27;20449;-41
2021/12/01 00:56:22;;;;;;;1.13;1.03;;;7.70;88.50;;;;;;5080424;28;20810;-42
2021/12/01 00:58:51;;;;;;;1.13;1.03;;;7.70;88.50;;;;;;5096783;28;20466;-42
2021/12/01 01:01:18;;;;;;;1.10;1.10;;;7.70;88.30;;;;;;5080177;28;20459;-42
2021/12/01 01:03:45;;;;;;;8.73;5.50;;;7.70;88.20;;;;;;5095819;28;20445;-42
2021/12/01 01:06:12;;;;;;;2.03;1.80;;;7.70;87.90;;;;;;5097240;28;20480;-42
2021/12/01 01:08:39;;;;;;;1.20;1.20;;;7.70;88.00;;;;;;5094081;28;20445;-42
2021/12/01 01:16:40;;;;;;;1.53;1.43;;;7.70;87.80;;;;;;5047240;28;20462;-42
2021/12/01 01:19:08;;;;;;;0.70;0.70;;;7.70;87.70;;;;;;5045103;28;21005;-42
2021/12/01 01:21:41;;;;;;;0.90;0.87;;;7.70;87.70;;;;;;5052568;28;20804;-42
2021/12/01 01:24:08;;;;;;;1.13;1.03;;;7.70;87.60;;;;;;5083062;28;20486;-42
2021/12/01 01:26:37;;;;;;;0.83;0.70;;;7.70;87.70;;;;;;5080423;28;20449;-42
2021/12/01 01:29:04;;;;;;;0.73;0.50;;;7.70;87.40;;;;;;5097608;28;20456;-42
2021/12/01 01:31:32;;;;;;;0.60;0.53;;;7.70;87.40;;;;;;5076460;28;20445;-42
2021/12/01 01:33:59;;;;;;;1.30;0.67;;;7.70;86.80;;;;;;5083406;28;20456;-42
2021/12/01 01:36:27;;;;;;;0.80;0.60;;;7.60;86.90;;;;;;5096193;28;20891;-42
2021/12/01 01:38:55;;;;;;;1.23;0.70;;;7.60;86.70;;;;;;5100629;28;20454;-42
2021/12/01 01:41:22;;;;;;;0.80;0.60;;;7.60;86.90;;;;;;5063676;28;20456;-42
2021/12/01 01:43:51;;;;;;;1.27;0.50;;;7.60;87.00;;;;;;5096183;28;20958;-42
2021/12/01 01:46:19;;;;;;;1.30;0.50;;;7.60;86.40;;;;;;5095941;28;20570;-42
2021/12/01 01:48:49;;;;;;;0.50;0.40;;;7.60;86.60;;;;;;5078766;28;20488;-42
2021/12/01 01:51:18;;;;;;;0.50;0.50;;;7.60;86.70;;;;;;5089820;28;20451;-42
2021/12/01 01:53:45;;;;;;;1.13;0.33;;;7.60;86.70;;;;;;5079847;28;20899;-42
2021/12/01 01:56:12;;;;;;;0.57;0.57;;;7.60;86.30;;;;;;5091490;28;20472;-43
2021/12/01 01:58:39;;;;;;;0.63;0.50;;;7.60;86.50;;;;;;5092359;28;20457;-42
2021/12/01 02:01:14;;;;;;;1.17;0.47;;;7.50;87.00;;;;;;5078979;28;20452;-42
2021/12/01 02:03:43;;;;;;;0.53;0.40;;;7.50;86.40;;;;;;5078849;28;20459;-42
2021/12/01 02:06:12;;;;;;;0.90;0.90;;;7.50;86.90;;;;;;5075420;28;20978;-42
2021/12/01 02:08:40;;;;;;;0.40;0.40;;;7.50;87.10;;;;;;5097208;28;20536;-42
2021/12/01 02:11:12;;;;;;;0.50;0.50;;;7.50;86.80;;;;;;5092478;28;20834;-42
2021/12/01 02:13:41;;;;;;;0.30;0.30;;;7.40;87.10;;;;;;5094499;28;20455;-42
2021/12/01 02:16:09;;;;;;;0.83;0.40;;;7.40;86.10;;;;;;5078792;28;20835;-42
2021/12/01 02:18:36;;;;;;;0.50;0.50;;;7.40;86.10;;;;;;5097317;28;20949;-42
2021/12/01 02:21:13;;;;;;;1.07;0.63;;;7.40;85.60;;;;;;5080865;28;21071;-42
2021/12/01 02:23:49;;;;;;;0.40;0.40;;;7.40;85.80;;;;;;5097067;28;20441;-42
2021/12/01 02:26:18;;;;;;;0.40;0.37;;;7.30;85.90;;;;;;5095005;28;20480;-42
2021/12/01 02:28:51;;;;;;;0.60;0.60;;;7.30;85.80;;;;;;5080148;28;20848;-42
2021/12/01 02:31:19;;;;;;;0.67;0.40;;;7.20;85.40;;;;;;5091919;28;20967;-42
2021/12/01 02:33:46;;;;;;;0.70;0.70;;;7.20;85.20;;;;;;5097082;28;20463;-42
2021/12/01 02:36:14;;;;;;;0.47;0.43;;;7.10;85.50;;;;;;5083402;28;20962;-42
2021/12/01 02:38:44;;;;;;;0.50;0.50;;;7.00;86.30;;;;;;5078384;28;20523;-42
2021/12/01 02:41:11;;;;;;;1.50;0.47;;;7.00;86.20;;;;;;5096730;28;20472;-42
2021/12/01 02:43:38;;;;;;;2.87;0.90;;;6.90;86.20;;;;;;5079869;28;20509;-42
2021/12/01 02:46:06;;;;;;;0.40;0.40;;;6.80;86.40;;;;;;5093383;28;20883;-42
2021/12/01 02:48:41;;;;;;;3.40;0.80;;;6.80;86.90;;;;;;5084365;28;20453;-42
2021/12/01 02:51:10;;;;;;;0.50;0.50;;;6.70;86.80;;;;;;5077766;28;20452;-42
2021/12/01 02:53:39;;;;;;;0.60;0.60;;;6.70;86.90;;;;;;5094128;28;20448;-42
2021/12/01 02:56:07;;;;;;;2.73;0.70;;;6.70;87.10;;;;;;5091358;28;20465;-42
2021/12/01 02:58:40;;;;;;;0.53;0.50;;;6.70;86.90;;;;;;5086012;28;20455;-42
2021/12/01 03:01:12;;;;;;;0.70;0.70;;;6.70;86.90;;;;;;5085132;28;20479;-42
2021/12/01 03:03:40;;;;;;;0.90;0.73;;;6.70;86.90;;;;;;5095968;28;20452;-42
2021/12/01 03:06:08;;;;;;;0.70;0.70;;;6.70;86.70;;;;;;5078721;28;20492;-42
2021/12/01 03:08:35;;;;;;;0.73;0.53;;;6.60;87.10;;;;;;5099208;28;20445;-42
2021/12/01 03:11:03;;;;;;;0.77;0.60;;;6.60;87.10;;;;;;5085105;28;20448;-42
2021/12/01 03:13:30;;;;;;;0.90;0.90;;;6.60;87.60;;;;;;5085460;28;20448;-42
2021/12/01 03:15:58;;;;;;;3.23;0.77;;;6.60;87.60;;;;;;5080072;28;20445;-42
2021/12/01 03:18:25;;;;;;;0.97;0.93;;;6.60;87.80;;;;;;5097324;28;20445;-41
2021/12/01 03:20:52;;;;;;;2.20;0.90;;;6.60;87.90;;;;;;5081013;28;20457;-41
2021/12/01 03:23:19;;;;;;;0.87;0.87;;;6.50;88.40;;;;;;5097129;28;20474;-41
2021/12/01 03:25:47;;;;;;;1.83;1.10;;;6.50;88.50;;;;;;5099673;28;20487;-41
2021/12/01 03:28:14;;;;;;;1.07;1.00;;;6.50;88.70;;;;;;5098767;27;20451;-41
2021/12/01 03:30:41;;;;;;;1.40;1.30;;;6.50;89.10;;;;;;5098705;28;20445;-41
2021/12/01 03:33:11;;;;;;;1.40;1.30;;;6.50;89.00;;;;;;5098926;28;20829;-41
2021/12/01 03:35:41;;;;;;;1.20;1.10;;;6.50;89.10;;;;;;5098446;28;20535;-43
2021/12/01 03:38:09;;;;;;;2.73;1.47;;;6.50;89.10;;;;;;5081815;28;20456;-43
2021/12/01 03:40:36;;;;;;;1.13;1.03;;;6.60;89.10;;;;;;5084161;28;20460;-43
2021/12/01 03:43:03;;;;;;;3.60;1.60;;;6.50;89.40;;;;;;5099024;28;20463;-43
2021/12/01 03:45:30;;;;;;;1.57;1.47;;;6.50;89.50;;;;;;5097129;28;20491;-43
2021/12/01 03:47:57;;;;;;;2.03;1.70;;;6.50;89.70;;;;;;5078316;28;20485;-43
2021/12/01 03:50:24;;;;;;;1.37;1.27;;;6.50;89.80;;;;;;5082064;28;20456;-43
2021/12/01 03:52:51;;;;;;;3.27;2.37;;;6.50;89.80;;;;;;5098217;28;20461;-43
2021/12/01 03:55:18;;;;;;;2.40;2.20;;;6.50;89.50;;;;;;5085160;28;21002;-42
2021/12/01 03:57:44;;;;;;;1.60;1.50;;;6.60;89.50;;;;;;5081936;28;20534;-43
2021/12/01 04:00:14;;;;;;;1.70;1.60;;;6.60;89.30;;;;;;5080778;28;20904;-43
2021/12/01 04:02:42;;;;;;;1.80;1.70;;;6.60;89.40;;;;;;5080891;28;20460;-43
2021/12/01 04:05:10;;;;;;;1.63;1.53;;;6.60;89.00;;;;;;5081736;28;20481;-43
2021/12/01 04:07:38;;;;;;;2.10;2.00;;;6.60;89.00;;;;;;5081019;28;20953;-43
2021/12/01 04:10:09;;;;;;;3.37;1.97;;;6.60;89.10;;;;;;5080830;28;20452;-43
2021/12/01 04:12:36;;;;;;;3.50;1.90;;;6.60;89.10;;;;;;5098134;28;20800;-43
2021/12/01 04:15:03;;;;;;;2.03;1.83;;;6.60;89.00;;;;;;5082879;28;20488;-43
2021/12/01 04:17:30;;;;;;;1.90;1.80;;;6.60;89.00;;;;;;5082653;28;20555;-43
2021/12/01 04:19:57;;;;;;;1.20;1.10;;;6.70;88.70;;;;;;5080750;28;20882;-43
2021/12/01 04:22:24;;;;;;;1.43;1.30;;;6.70;88.40;;;;;;5101798;28;20456;-43
2021/12/01 04:24:51;;;;;;;1.70;1.60;;;6.70;87.90;;;;;;5084726;28;20841;-43
2021/12/01 04:27:18;;;;;;;2.13;2.00;;;6.70;87.60;;;;;;5097153;28;20462;-43
2021/12/01 04:29:44;;;;;;;1.93;1.60;;;6.70;88.00;;;;;;5098638;28;20459;-43
2021/12/01 04:32:11;;;;;;;1.60;1.40;;;6.70;87.50;;;;;;5082975;28;20453;-43
2021/12/01 04:34:38;;;;;;;1.67;1.57;;;6.80;87.20;;;;;;5082634;28;20470;-43
2021/12/01 04:37:06;;;;;;;2.10;1.57;;;6.70;87.30;;;;;;5097030;28;20459;-43
2021/12/01 04:39:33;;;;;;;1.47;1.37;;;6.70;87.00;;;;;;5082072;28;20449;-43
2021/12/01 04:42:05;;;;;;;2.07;1.87;;;6.80;87.00;;;;;;5099157;27;20467;-43
2021/12/01 04:44:35;;;;;;;2.20;1.60;;;6.80;86.90;;;;;;5082232;28;20445;-44
2021/12/01 04:47:08;;;;;;;1.50;1.40;;;6.80;87.20;;;;;;5086278;28;20479;-43
2021/12/01 04:49:37;;;;;;;1.47;1.37;;;6.90;86.90;;;;;;5079584;28;20470;-43
2021/12/01 04:52:04;;;;;;;1.23;1.20;;;6.90;86.70;;;;;;5098296;27;20451;-43
2021/12/01 04:54:33;;;;;;;1.77;1.67;;;6.90;86.30;;;;;;5094299;28;20880;-43
2021/12/01 04:57:03;;;;;;;1.73;1.60;;;6.90;86.30;;;;;;5066567;28;20483;-43
2021/12/01 04:59:30;;;;;;;1.40;1.30;;;6.90;86.30;;;;;;5095154;28;20521;-43
2021/12/01 05:01:57;;;;;;;3.33;1.60;;;6.90;86.50;;;;;;5072810;28;20444;-43
2021/12/01 05:04:24;;;;;;;1.50;1.40;;;6.90;86.40;;;;;;5070565;28;20502;-43
2021/12/01 05:06:51;;;;;;;1.70;1.60;;;6.90;86.10;;;;;;5096772;28;20487;-43
2021/12/01 05:09:18;;;;;;;6.43;4.50;;;6.90;86.40;;;;;;5084409;28;20448;-43
2021/12/01 05:11:45;;;;;;;1.87;1.73;;;6.90;86.50;;;;;;5095273;28;20801;-43
2021/12/01 05:14:13;;;;;;;1.80;1.70;;;7.00;86.30;;;;;;5092266;28;20966;-43
2021/12/01 05:16:41;;;;;;;1.67;1.57;;;7.00;86.60;;;;;;5077857;28;20463;-43
2021/12/01 05:19:10;;;;;;;1.80;1.70;;;7.00;86.00;;;;;;5097717;28;20456;-43
2021/12/01 05:21:38;;;;;;;2.50;1.77;;;7.00;85.90;;;;;;5096201;27;20502;-44
2021/12/01 05:24:05;;;;;;;1.70;1.60;;;7.10;85.90;;;;;;5097364;28;20460;-44
2021/12/01 05:26:32;;;;;;;1.17;1.07;;;7.10;86.00;;;;;;5096400;28;20495;-44
2021/12/01 05:29:00;;;;;;;1.83;1.73;;;7.10;86.10;;;;;;5094640;28;20489;-44
2021/12/01 05:31:26;;;;;;;1.53;1.43;;;7.10;85.90;;;;;;5081269;28;20454;-44
2021/12/01 05:33:53;;;;;;;1.77;1.67;;;7.10;85.70;;;;;;5085790;28;21038;-44
2021/12/01 05:36:20;;;;;;;1.80;1.40;;;7.10;85.70;;;;;;5080712;28;20444;-44
2021/12/01 05:38:47;;;;;;;2.30;2.10;;;7.10;85.90;;;;;;5081252;28;20547;-44
2021/12/01 05:41:14;;;;;;;2.07;1.97;;;7.10;85.70;;;;;;5078325;28;20476;-44
2021/12/01 05:43:41;;;;;;;2.67;1.87;;;7.10;86.00;;;;;;5084840;28;20453;-44
2021/12/01 05:46:08;;;;;;;2.40;2.20;;;7.10;86.20;;;;;;5096045;28;20493;-43
2021/12/01 05:48:35;;;;;;;2.00;1.90;;;7.10;86.30;;;;;;5094989;28;20483;-43
2021/12/01 05:51:02;;;;;;;2.67;2.23;;;7.10;86.20;;;;;;5076252;28;20444;-43
2021/12/01 05:53:29;;;;;;;6.87;2.37;;;7.10;86.00;;;;;;5075476;28;21046;-43
2021/12/01 05:55:56;;;;;;;2.77;2.57;;;7.10;85.70;;;;;;5092505;28;20464;-43
2021/12/01 05:58:23;;;;;;;3.20;2.40;;;7.10;86.30;;;;;;5085779;28;20449;-43
2021/12/01 06:00:50;;;;;;;3.13;2.70;;;7.10;85.90;;;;;;5082772;28;20468;-43
2021/12/01 06:03:17;;;;;;;3.27;2.23;;;7.10;86.20;;;;;;5093946;28;20947;-44
2021/12/01 06:05:44;;;;;;;3.37;2.70;;;7.10;86.30;;;;;;5080202;28;20480;-43
2021/12/01 06:08:12;;;;;;;3.53;2.20;;;7.10;86.20;;;;;;5078827;28;20456;-43
2021/12/01 06:10:40;;;;;;;3.17;2.67;;;7.20;86.00;;;;;;5077551;28;20452;-43
2021/12/01 06:13:09;;;;;;;3.40;2.40;;;7.20;85.60;;;;;;5094573;28;20452;-43
2021/12/01 06:15:36;;;;;;;3.93;3.63;;;7.20;85.20;;;;;;5093329;28;20453;-44
2021/12/01 06:18:04;;;;;;;3.83;2.40;;;7.20;85.70;;;;;;5097554;28;20480;-43
2021/12/01 06:20:31;;;;;;;2.97;2.67;;;7.10;85.70;;;;;;5083400;28;20951;-43
2021/12/01 06:22:58;;;;;;;3.17;2.87;;;7.10;85.60;;;;;;5078766;28;20483;-43
2021/12/01 06:25:26;;;;;;;3.83;2.60;;;7.10;85.40;;;;;;5094560;28;20828;-43
2021/12/01 06:27:54;;;;;;;3.10;2.70;;;7.10;85.20;;;;;;5096575;28;20471;-43
2021/12/01 06:30:22;;;;;;;4.03;2.87;;;7.10;85.00;;;;;;5093528;28;20445;-44
2021/12/01 06:32:49;;;;;;;3.53;3.00;;;7.10;85.30;;;;;;5073767;28;20463;-44
2021/12/01 06:35:16;;;;;;;3.73;2.33;;;7.10;85.80;;;;;;5093891;28;20818;-43
2021/12/01 06:37:43;;;;;;;3.07;2.77;;;7.10;85.50;;;;;;5085672;28;20452;-43
2021/12/01 06:40:12;;;;;;;3.13;2.80;;;7.20;85.80;;;;;;5095999;28;20462;-43
2021/12/01 06:42:39;;;;;;;4.87;3.50;;;7.20;85.50;;;;;;5098849;28;20458;-43
2021/12/01 06:45:10;;;;;;;2.87;2.57;;;7.20;85.20;;;;;;5096213;28;20843;-43
2021/12/01 06:47:38;;;;;;;3.33;3.03;;;7.20;85.50;;;;;;5100172;28;20487;-43
2021/12/01 06:50:08;;;;;;;5.20;2.60;;;7.20;85.10;;;;;;5096790;28;20502;-43
2021/12/01 06:52:35;;;;;;;3.63;3.10;;;7.20;85.00;;;;;;5082941;28;20455;-43
2021/12/01 06:55:03;;;;;;;2.73;2.50;;;7.20;84.80;;;;;;5097727;28;20546;-43
2021/12/01 06:57:30;;;;;;;3.17;2.27;;;7.20;84.60;;;;;;5080469;28;20449;-43
2021/12/01 06:59:57;;;;;;;3.17;2.47;;;7.20;84.70;;;;;;5100857;27;20451;-44
2021/12/01 07:02:23;;;;;;;3.13;2.93;;;7.20;84.90;;;;;;5079749;28;21100;-43
2021/12/01 07:04:50;;;;;;;3.37;2.77;;;7.10;85.20;;;;;;5097650;28;20449;-44
2021/12/01 07:07:17;;;;;;;2.70;2.47;;;7.20;84.70;;;;;;5086438;28;20488;-43
2021/12/01 07:09:49;;;;;;;3.70;2.10;;;7.20;84.80;;;;;;5098106;27;20486;-44
2021/12/01 07:12:17;;;;;;;2.90;2.23;;;7.20;85.00;;;;;;5100034;27;20458;-44
2021/12/01 07:14:44;;;;;;;2.60;2.40;;;7.20;84.70;;;;;;5082703;27;21014;-44
2021/12/01 07:17:12;;;;;;;3.90;2.07;;;7.20;84.90;;;;;;5089680;28;20527;-44
2021/12/01 07:19:38;;;;;;;2.40;2.03;;;7.20;84.80;;;;;;5085249;27;20494;-43
2021/12/01 07:22:05;;;;;;;2.30;2.10;;;7.30;84.50;;;;;;5101065;27;20472;-44
2021/12/01 07:24:32;;;;;;;2.17;2.07;;;7.20;84.60;;;;;;5099354;28;20452;-44
2021/12/01 07:26:59;;;;;;;1.67;1.57;;;7.20;84.90;;;;;;5099267;28;20487;-44
2021/12/01 07:29:26;;;;;;;3.07;2.70;;;7.20;84.40;;;;;;5099527;28;20445;-44
2021/12/01 07:31:53;;;;;;;1.63;1.53;;;7.20;84.40;;;;;;5097185;28;20955;-44
2021/12/01 07:34:20;;;;;;;3.70;2.40;;;7.20;84.60;;;;;;5099013;28;20940;-44
2021/12/01 07:36:48;;;;;;;3.47;1.70;;;7.20;84.80;;;;;;5080066;28;20502;-43
2021/12/01 07:39:20;;;;;;;1.90;1.37;;;7.20;84.80;;;;;;5096990;28;20532;-43
2021/12/01 07:41:48;;;;;;;1.60;1.50;;;7.20;84.70;;;;;;5096076;28;20501;-44
2021/12/01 07:44:15;;;;;;;1.63;1.53;;;7.20;84.70;;;;;;5087428;28;20520;-44
2021/12/01 07:46:42;;;;;;;3.10;1.77;;;7.20;84.90;;;;;;5084699;28;20850;-44
2021/12/01 07:49:09;;;;;;;1.73;1.63;;;7.20;85.00;;;;;;5083830;28;20967;-44
2021/12/01 07:51:36;;;;;;;1.20;1.10;;;7.20;85.10;;;;;;5081306;28;20451;-44
2021/12/01 07:54:03;;;;;;;3.80;1.97;;;7.20;85.00;;;;;;5105313;28;20447;-44
2021/12/01 07:56:31;;;;;;;1.47;1.37;;;7.20;85.20;;;;;;5101397;28;20563;-44
2021/12/01 07:58:58;;;;;;;1.47;1.20;;;7.30;85.20;;;;;;5099980;28;20443;-44
2021/12/01 08:01:24;;;;;;;1.30;1.20;;;7.30;85.20;;;;;;5086038;28;20813;-44
2021/12/01 08:03:51;;;;;;;1.93;1.50;;;7.30;85.10;;;;;;5090792;28;20578;-44
2021/12/01 08:06:19;;;;;;;1.20;1.10;;;7.30;85.00;;;;;;5066657;28;20472;-44
2021/12/01 08:08:46;;;;;;;1.13;1.13;;;7.40;85.10;;;;;;5083279;27;20484;-44
2021/12/01 08:11:12;;;;;;;1.17;1.07;;;7.30;85.20;;;;;;5097055;27;20445;-45
2021/12/01 08:13:39;;;;;;;1.00;0.90;;;7.40;85.30;;;;;;5094413;27;20964;-44
2021/12/01 08:16:10;;;;;;;1.20;1.20;;;7.40;85.20;;;;;;5101870;27;20467;-44
2021/12/01 08:18:37;;;;;;;1.10;0.90;;;7.40;85.20;;;;;;5082576;28;20950;-44
2021/12/01 08:21:04;;;;;;;2.00;1.90;;;7.40;85.20;;;;;;5094784;28;20540;-44
2021/12/01 08:23:31;;;;;;;1.37;1.27;;;7.40;85.30;;;;;;5095853;28;20568;-44
2021/12/01 08:25:57;;;;;;;1.10;1.00;;;7.40;85.10;;;;;;5093710;28;20839;-44
2021/12/01 08:28:24;;;;;;;1.00;0.80;;;7.40;85.60;;;;;;5090245;28;20484;-44
2021/12/01 08:30:51;;;;;;;1.27;1.17;;;7.50;85.40;;;;;;5094048;28;21019;-44
2021/12/01 08:33:18;;;;;;;0.80;0.80;;;7.50;85.50;;;;;;5094277;28;20739;-44
2021/12/01 08:35:46;;;;;;;1.80;0.97;;;7.50;85.50;;;;;;5099425;28;20448;-44
2021/12/01 08:38:13;;;;;;;0.93;0.87;;;7.50;85.50;;;;;;5094603;28;20456;-44
2021/12/01 08:40:40;;;;;;;1.50;1.10;;;7.50;85.60;;;;;;5096303;27;20467;-44
2021/12/01 08:43:07;;;;;;;0.73;0.73;;;7.60;85.70;;;;;;5097991;28;20463;-44
2021/12/01 08:45:34;;;;;;;3.40;1.40;;;7.60;85.30;;;;;;5094811;28;20543;-43
2021/12/01 08:48:03;;;;;;;0.70;0.70;;;7.70;85.10;;;;;;5096457;28;20479;-44
2021/12/01 08:50:30;;;;;;;1.10;1.00;;;7.80;85.00;;;;;;5097621;28;20478;-44
2021/12/01 08:52:58;;;;;;;0.70;0.70;;;7.80;84.80;;;;;;5080196;28;20467;-43
2021/12/01 08:55:25;;;;;;;0.87;0.87;;;7.70;85.00;;;;;;5100309;27;20476;-43
2021/12/01 08:58:10;;;;;;;0.83;0.80;;;7.70;85.20;;;;;;5101552;28;20452;-43
2021/12/01 09:00:41;;;;;;;0.50;0.50;;;7.80;85.10;;;;;;5096729;27;20965;-43
2021/12/01 09:03:08;;;;;;;1.17;1.07;;;7.80;84.90;;;;;;5096784;27;20441;-43
2021/12/01 09:05:35;;;;;;;1.60;0.90;;;7.80;84.90;;;;;;5074091;28;20464;-43
2021/12/01 09:08:02;;;;;;;1.23;1.13;;;7.80;85.00;;;;;;5095622;28;20490;-43
2021/12/01 09:10:29;;;;;;;0.80;0.80;;;7.80;85.00;;;;;;5092725;28;20822;-43
2021/12/01 09:12:56;;;;;;;1.03;0.70;;;7.80;85.00;;;;;;5097014;27;20455;-43
2021/12/01 09:15:23;;;;;;;1.30;1.00;;;7.90;84.90;;;;;;5080728;28;20471;-43
2021/12/01 09:17:49;;;;;;;0.83;0.83;;;7.90;85.00;;;;;;5099479;27;20463;-43
2021/12/01 09:20:16;;;;;;;1.57;0.83;;;7.90;84.80;;;;;;5078657;28;20464;-43
2021/12/01 09:22:43;;;;;;;1.00;1.00;;;7.90;84.80;;;;;;5079593;28;20456;-43
2021/12/01 09:25:10;;;;;;;0.67;0.60;;;7.90;84.70;;;;;;5082779;28;20552;-44
2021/12/01 09:27:37;;;;;;;1.00;0.90;;;7.90;84.60;;;;;;5094942;27;20487;-44
2021/12/01 09:30:05;;;;;;;1.77;0.90;;;7.90;84.60;;;;;;5096529;27;20456;-44
2021/12/01 09:32:37;;;;;;;0.90;0.70;;;8.00;84.40;;;;;;5079593;28;20461;-44
2021/12/01 09:35:06;;;;;;;0.90;0.73;;;8.00;84.60;;;;;;5101415;27;20432;-44
2021/12/01 09:37:33;;;;;;;1.50;1.13;;;8.00;84.40;;;;;;5078889;28;20452;-44
2021/12/01 09:40:03;;;;;;;1.83;1.70;;;8.00;84.40;;;;;;5081381;28;20502;-44
2021/12/01 09:42:31;;;;;;;0.67;0.67;;;8.10;84.20;;;;;;5096031;28;20457;-44
2021/12/01 09:44:57;;;;;;;0.70;0.70;;;8.10;84.10;;;;;;5088469;27;20828;-44
2021/12/01 09:47:25;;;;;;;0.60;0.60;;;8.10;84.00;;;;;;5095061;27;20542;-44
2021/12/01 09:49:52;;;;;;;0.47;0.40;;;8.10;84.30;;;;;;5069120;28;20459;-44
2021/12/01 09:52:19;;;;;;;1.10;1.00;;;8.20;84.30;;;;;;5095155;28;20456;-44
2021/12/01 09:54:48;;;;;;;1.90;0.50;;;8.20;84.10;;;;;;5073655;27;20467;-44
2021/12/01 09:57:14;;;;;;;1.00;0.60;;;8.20;84.20;;;;;;5093443;28;20471;-44
2021/12/01 09:59:42;;;;;;;0.73;0.50;;;8.20;84.20;;;;;;5092361;28;20460;-44
2021/12/01 10:02:11;;;;;;;0.60;0.60;;;8.30;84.00;;;;;;5094966;27;20457;-44
2021/12/01 10:04:38;;;;;;;1.00;0.53;;;8.30;83.80;;;;;;5075298;28;20506;-44
2021/12/01 10:07:17;;;;;;;1.27;0.67;;;8.40;83.60;;;;;;5099534;28;21037;-44
2021/12/01 10:09:46;;;;;;;0.50;0.50;;;8.40;83.70;;;;;;5099852;27;20476;-44
2021/12/01 10:12:13;;;;;;;0.63;0.60;;;8.40;83.20;;;;;;5098724;27;20468;-44
2021/12/01 10:14:45;;;;;;;1.00;0.53;;;8.40;83.60;;;;;;5082531;27;20468;-44
2021/12/01 10:17:14;;;;;;;0.40;0.40;;;8.40;83.30;;;;;;5093893;27;20486;-43
2021/12/01 10:19:40;;;;;;;0.60;0.50;;;8.50;82.80;;;;;;5081155;28;20479;-44
2021/12/01 10:22:10;;;;;;;0.53;0.47;;;8.50;83.10;;;;;;5094480;28;20467;-44
2021/12/01 10:24:39;;;;;;;0.60;0.50;;;8.50;83.20;;;;;;5094771;28;20969;-44
2021/12/01 10:27:12;;;;;;;0.63;0.50;;;8.50;83.50;;;;;;5093511;28;20495;-43
2021/12/01 10:29:49;;;;;;;13.33;6.07;;;8.50;83.30;;;;;;5094985;28;20444;-44
2021/12/01 10:32:18;;;;;;;1.17;0.90;;;8.60;83.30;;;;;;5084902;28;20497;-44
2021/12/01 10:34:57;;;;;;;0.50;0.50;;;8.60;83.50;;;;;;5094346;28;20473;-44
2021/12/01 10:37:30;;;;;;;0.60;0.50;;;8.60;83.10;;;;;;5097478;28;20436;-44
2021/12/01 10:40:24;;;;;;;0.80;0.80;;;8.60;82.80;;;;;;5093473;28;20467;-44
2021/12/01 10:43:02;;;;;;;0.40;0.33;;;8.60;83.20;;;;;;5095022;28;20879;-44
2021/12/01 10:45:38;;;;;;;0.47;0.47;;;8.60;83.00;;;;;;5095364;28;20445;-44
2021/12/01 10:48:08;;;;;;;1.37;0.40;;;8.70;83.00;;;;;;5097520;28;20595;-44
2021/12/01 10:50:42;;;;;;;0.60;0.40;;;8.70;83.00;;;;;;5100676;28;20544;-44
2021/12/01 10:53:18;;;;;;;0.50;0.40;;;8.70;82.80;;;;;;5072620;28;20973;-44
2021/12/01 10:55:54;;;;;;;0.57;0.57;;;8.70;83.00;;;;;;5071061;28;21002;-44
2021/12/01 10:58:35;;;;;;;0.50;0.50;;;8.70;83.20;;;;;;5081490;28;20440;-44
2021/12/01 11:01:04;;;;;;;1.47;0.40;;;8.70;83.00;;;;;;5080553;28;20464;-44
2021/12/01 11:03:33;;;;;;;0.60;0.60;;;8.80;83.20;;;;;;5083374;28;20837;-44
2021/12/01 11:06:10;;;;;;;0.57;0.50;;;8.80;83.20;;;;;;5080582;28;20539;-44
2021/12/01 11:08:42;;;;;;;3.70;0.60;;;8.80;83.30;;;;;;5078540;28;20495;-44
2021/12/01 11:11:18;;;;;;;0.40;0.40;;;8.90;82.90;;;;;;5086995;28;20958;-43
2021/12/01 11:14:23;;;;;;;0.57;0.50;;;8.90;83.10;;;;;;5096359;28;20432;-43
2021/12/01 11:16:50;;;;;;;0.60;0.50;;;8.90;83.10;;;;;;5096469;28;20455;-44
2021/12/01 11:19:31;;;;;;;0.50;0.50;;;8.90;82.90;;;;;;5079149;28;20480;-43
2021/12/01 11:22:28;;;;;;;0.50;0.50;;;9.00;82.90;;;;;;5096493;28;20486;-43
2021/12/01 11:25:25;;;;;;;0.60;0.40;;;9.00;82.60;;;;;;5097625;28;20938;-43
2021/12/01 11:27:52;;;;;;;0.90;0.50;;;9.00;82.80;;;;;;5089075;28;20488;-44
2021/12/01 11:30:19;;;;;;;0.50;0.50;;;9.10;82.80;;;;;;5078600;28;20985;-44
2021/12/01 11:33:10;;;;;;;0.47;0.40;;;9.10;82.70;;;;;;5086867;27;20483;-44
2021/12/01 11:35:39;;;;;;;2.87;0.60;;;9.10;82.80;;;;;;5094955;28;20834;-43
2021/12/01 11:38:08;;;;;;;0.50;0.50;;;9.20;82.80;;;;;;5081149;28;20452;-43
2021/12/01 11:40:35;;;;;;;0.40;0.30;;;9.20;82.30;;;;;;5094598;27;20449;-43
2021/12/01 11:43:03;;;;;;;0.60;0.40;;;9.30;82.20;;;;;;5099112;27;20461;-44
2021/12/01 11:45:30;;;;;;;0.83;0.77;;;9.30;82.50;;;;;;5097380;27;21040;-44
2021/12/01 11:47:58;;;;;;;1.23;0.43;;;9.30;82.10;;;;;;5076164;28;20519;-44
2021/12/01 11:50:32;;;;;;;0.40;0.40;;;9.40;82.10;;;;;;5100462;27;20983;-43
2021/12/01 11:53:21;;;;;;;1.07;0.47;;;9.40;82.10;;;;;;5095648;28;21077;-44
2021/12/01 11:55:56;;;;;;;5.83;0.50;;;9.50;81.60;;;;;;5093162;27;20468;-43
2021/12/01 11:58:41;;;;;;;0.70;0.57;;;9.50;81.60;;;;;;5095860;28;20457;-43
2021/12/01 12:01:20;;;;;;;3.53;2.07;;;9.50;82.10;;;;;;5097764;27;20938;-43
2021/12/01 12:03:53;;;;;;;1.17;0.60;;;9.40;82.30;;;;;;5089837;27;20484;-44
2021/12/01 12:06:22;;;;;;;0.70;0.53;;;9.40;82.30;;;;;;5077625;27;20551;-43
2021/12/01 12:08:54;;;;;;;0.67;0.40;;;9.30;82.70;;;;;;5102063;27;20480;-43
2021/12/01 12:11:37;;;;;;;0.50;0.40;;;9.30;83.00;;;;;;5098222;27;20449;-43
2021/12/01 12:14:14;;;;;;;0.40;0.40;;;9.30;83.10;;;;;;5099022;27;20980;-44
2021/12/01 12:17:02;;;;;;;0.40;0.40;;;9.30;83.20;;;;;;5066798;28;20902;-44
2021/12/01 12:19:49;;;;;;;0.37;0.30;;;9.20;83.40;;;;;;5096537;28;20456;-44
2021/12/01 12:22:46;;;;;;;0.50;0.50;;;9.20;83.60;;;;;;5073249;28;20820;-43
2021/12/01 12:25:44;;;;;;;0.50;0.50;;;9.20;84.10;;;;;;5083520;28;20478;-44
2021/12/01 12:28:35;;;;;;;0.50;0.40;;;9.20;84.30;;;;;;5098395;28;20480;-44
2021/12/01 12:31:24;;;;;;;0.50;0.40;;;9.20;84.20;;;;;;5096898;28;20488;-44
2021/12/01 12:34:02;;;;;;;0.73;0.43;;;9.20;84.40;;;;;;5097193;27;20469;-44
2021/12/01 12:36:44;;;;;;;0.60;0.60;;;9.30;84.40;;;;;;5096786;28;20471;-44
2021/12/01 12:39:14;;;;;;;0.50;0.50;;;9.30;84.00;;;;;;5095207;28;20586;-44
2021/12/01 12:42:00;;;;;;;1.17;0.80;;;9.30;84.10;;;;;;5094778;28;20981;-44
2021/12/01 12:44:27;;;;;;;0.80;0.50;;;9.30;83.90;;;;;;5085272;28;21065;-44
2021/12/01 12:47:08;;;;;;;0.30;0.30;;;9.20;84.00;;;;;;5096086;27;20463;-44
2021/12/01 12:49:41;;;;;;;0.47;0.47;;;9.20;84.10;;;;;;5080597;28;20965;-44
2021/12/01 12:52:27;;;;;;;0.87;0.47;;;9.30;83.90;;;;;;5099076;28;20451;-44
2021/12/01 12:54:55;;;;;;;0.40;0.40;;;9.20;83.90;;;;;;5097169;27;20453;-44
2021/12/01 12:57:24;;;;;;;0.63;0.40;;;9.20;83.90;;;;;;5099104;27;20950;-44
2021/12/01 13:00:22;;;;;;;0.50;0.50;;;9.30;83.50;;;;;;5098882;27;20464;-44
2021/12/01 13:02:50;;;;;;;0.60;0.40;;;9.30;83.70;;;;;;5096388;27;20465;-44
2021/12/01 13:05:34;;;;;;;0.73;0.57;;;9.30;83.60;;;;;;5103044;27;20457;-44
2021/12/01 13:08:01;;;;;;;0.40;0.40;;;9.30;83.40;;;;;;5094002;27;21486;-43
2021/12/01 13:10:39;;;;;;;1.10;0.50;;;9.30;83.50;;;;;;5097981;28;20528;-43
2021/12/01 13:13:10;;;;;;;0.63;0.50;;;9.40;83.40;;;;;;5067685;28;20460;-43
2021/12/01 13:15:46;;;;;;;0.87;0.60;;;9.30;83.70;;;;;;5080020;27;20468;-43
2021/12/01 13:18:14;;;;;;;3.33;0.60;;;9.40;83.20;;;;;;5081916;28;20456;-43